createdAt,value
2017-05-18T00:01:24.672Z,5.76
2017-05-18T00:03:52.419Z,6.22
2017-05-18T00:06:20.135Z,5.80
2017-05-18T00:08:48.369Z,5.40
2017-05-18T00:11:16.088Z,5.72
2017-05-18T00:13:43.817Z,6.52
2017-05-18T00:16:12.480Z,6.18
2017-05-18T00:18:40.208Z,6.12
2017-05-18T00:21:07.928Z,6.04
2017-05-18T00:23:36.789Z,6.26
2017-05-18T00:26:04.536Z,6.60
2017-05-18T00:28:32.257Z,6.66
2017-05-18T00:31:00.012Z,6.52
2017-05-18T00:33:27.729Z,6.56
2017-05-18T00:35:55.465Z,5.98
2017-05-18T00:38:23.576Z,7.12
2017-05-18T00:40:51.292Z,6.36
2017-05-18T00:43:19.016Z,6.28
2017-05-18T00:45:47.499Z,7.10
2017-05-18T00:48:15.980Z,7.18
2017-05-18T00:50:44.443Z,6.84
2017-05-18T00:53:12.249Z,7.26
2017-05-18T00:55:39.980Z,7.36
2017-05-18T00:58:07.704Z,6.08
2017-05-18T01:00:35.917Z,6.76
2017-05-18T01:03:03.640Z,5.94
2017-05-18T01:05:31.363Z,6.20
2017-05-18T01:07:59.856Z,7.40
2017-05-18T01:10:27.571Z,6.74
2017-05-18T01:12:55.309Z,6.50
2017-05-18T01:15:23.515Z,6.94
2017-05-18T01:17:51.232Z,6.72
2017-05-18T01:20:18.967Z,7.36
2017-05-18T01:22:47.471Z,7.08
2017-05-18T01:25:15.195Z,7.08
2017-05-18T01:27:42.917Z,7.36
2017-05-18T01:30:10.662Z,7.08
2017-05-18T01:32:38.385Z,7.22
2017-05-18T01:35:06.883Z,8.28
2017-05-18T01:37:35.951Z,7.36
2017-05-18T01:40:03.703Z,8.30
2017-05-18T01:42:31.417Z,7.50
2017-05-18T01:44:59.352Z,7.24
2017-05-18T01:47:27.068Z,7.62
2017-05-18T01:49:54.788Z,7.32
2017-05-18T01:52:23.282Z,7.92
2017-05-18T01:54:51.037Z,7.44
2017-05-18T01:57:18.753Z,7.56
2017-05-18T01:59:47.669Z,7.84
2017-05-18T02:02:15.391Z,8.64
2017-05-18T02:04:43.104Z,8.20
2017-05-18T02:07:11.164Z,7.88
2017-05-18T02:09:38.907Z,7.28
2017-05-18T02:12:06.632Z,8.18
2017-05-18T02:14:34.676Z,8.04
2017-05-18T02:17:03.136Z,7.94
2017-05-18T02:19:30.860Z,8.76
2017-05-18T02:21:58.616Z,8.86
2017-05-18T02:24:26.336Z,9.40
2017-05-18T02:26:55.636Z,7.96
2017-05-18T02:29:23.401Z,8.52
2017-05-18T02:31:51.124Z,9.24
2017-05-18T02:34:18.844Z,9.34
2017-05-18T02:36:47.755Z,8.14
2017-05-18T02:39:15.475Z,8.88
2017-05-18T02:41:43.200Z,9.08
2017-05-18T02:44:11.412Z,8.84
2017-05-18T02:46:39.146Z,9.04
2017-05-18T02:49:06.868Z,9.16
2017-05-18T02:51:35.014Z,8.80
2017-05-18T02:54:02.735Z,8.95
2017-05-18T02:56:30.452Z,8.64
2017-05-18T02:58:58.944Z,8.64
2017-05-18T03:01:27.408Z,8.08
2017-05-18T03:03:55.150Z,8.60
2017-05-18T03:06:23.138Z,8.98
2017-05-18T03:08:50.863Z,8.72
2017-05-18T03:11:18.588Z,9.54
2017-05-18T03:13:46.353Z,9.38
2017-05-18T03:16:14.092Z,8.52
2017-05-18T03:18:41.812Z,9.72
2017-05-18T03:21:09.717Z,10.74
2017-05-18T03:23:37.432Z,9.90
2017-05-18T03:26:05.183Z,8.82
2017-05-18T03:28:34.752Z,9.98
2017-05-18T03:31:03.225Z,9.30
2017-05-18T03:33:30.948Z,9.88
2017-05-18T03:35:58.692Z,9.80
2017-05-18T03:38:26.432Z,11.12
2017-05-18T03:40:54.900Z,9.72
2017-05-18T03:43:22.974Z,10.96
2017-05-18T03:45:51.435Z,9.58
2017-05-18T03:48:19.148Z,8.82
2017-05-18T03:50:47.488Z,9.74
2017-05-18T03:53:15.204Z,8.98
2017-05-18T03:55:42.928Z,9.40
2017-05-18T03:58:11.699Z,10.26
2017-05-18T04:00:39.418Z,10.06
2017-05-18T04:03:07.139Z,9.60
2017-05-18T04:05:35.915Z,9.72
2017-05-18T04:08:03.656Z,10.32
2017-05-18T04:10:31.379Z,11.04
2017-05-18T04:12:59.143Z,9.78
2017-05-18T04:15:26.868Z,10.72
2017-05-18T04:17:54.584Z,9.42
2017-05-18T04:20:22.700Z,9.94
2017-05-18T04:22:50.425Z,10.20
2017-05-18T04:25:18.159Z,9.96
2017-05-18T04:27:46.206Z,9.76
2017-05-18T04:30:13.932Z,11.58
2017-05-18T04:32:41.656Z,9.64
2017-05-18T04:35:09.410Z,10.20
2017-05-18T04:37:37.892Z,11.38
2017-05-18T04:40:06.356Z,9.92
2017-05-18T04:42:34.868Z,9.92
2017-05-18T04:45:02.592Z,10.82
2017-05-18T04:47:30.308Z,10.28
2017-05-18T04:49:58.432Z,10.06
2017-05-18T04:52:26.160Z,10.90
2017-05-18T04:54:53.888Z,10.04
2017-05-18T04:57:22.032Z,10.40
2017-05-18T04:59:49.751Z,10.44
2017-05-18T05:02:17.468Z,9.96
2017-05-18T05:04:45.237Z,10.10
2017-05-18T05:07:13.706Z,10.18
2017-05-18T05:09:41.448Z,10.22
2017-05-18T05:12:09.192Z,9.98
2017-05-18T05:14:36.921Z,9.70
2017-05-18T05:17:04.670Z,9.90
2017-05-18T05:19:33.383Z,9.98
2017-05-18T05:22:01.189Z,10.08
2017-05-18T05:24:28.913Z,10.62
2017-05-18T05:26:56.680Z,10.56
2017-05-18T05:29:24.401Z,9.28
2017-05-18T05:31:52.877Z,9.08
2017-05-18T05:34:21.657Z,9.00
2017-05-18T05:36:49.381Z,9.76
2017-05-18T05:39:17.104Z,9.32
2017-05-18T05:41:45.593Z,9.86
2017-05-18T05:44:13.334Z,11.46
2017-05-18T05:46:41.064Z,9.54
2017-05-18T05:49:08.808Z,8.62
2017-05-18T05:51:36.534Z,10.54
2017-05-18T05:54:05.015Z,9.82
2017-05-18T05:56:33.068Z,8.98
2017-05-18T05:59:00.796Z,9.22
2017-05-18T06:01:28.528Z,10.16
2017-05-18T06:03:56.985Z,10.32
2017-05-18T06:06:25.443Z,8.62
2017-05-18T06:08:53.159Z,9.38
2017-05-18T06:11:21.266Z,8.84
2017-05-18T06:13:48.996Z,9.50
2017-05-18T06:16:17.227Z,9.10
2017-05-18T06:18:44.995Z,9.68
2017-05-18T06:21:12.737Z,8.96
2017-05-18T06:23:40.465Z,8.34
2017-05-18T06:26:08.234Z,8.74
2017-05-18T06:28:35.984Z,9.00
2017-05-18T06:31:03.713Z,9.24
2017-05-18T06:33:31.680Z,10.64
2017-05-18T06:35:59.626Z,9.56
2017-05-18T06:38:27.409Z,9.68
2017-05-18T06:40:55.684Z,9.48
2017-05-18T06:43:23.404Z,10.10
2017-05-18T06:45:51.136Z,10.00
2017-05-18T06:48:18.904Z,9.46
2017-05-18T06:50:46.641Z,10.80
2017-05-18T06:53:14.371Z,10.20
2017-05-18T06:55:42.472Z,9.98
2017-05-18T06:58:10.201Z,10.22
2017-05-18T07:00:37.925Z,8.60
2017-05-18T07:03:06.016Z,9.46
2017-05-18T07:05:33.739Z,10.08
2017-05-18T07:08:01.460Z,7.50
2017-05-18T07:10:29.239Z,8.84
2017-05-18T07:12:56.956Z,9.32
2017-05-18T07:15:24.675Z,8.38
2017-05-18T07:17:52.753Z,8.02
2017-05-18T07:20:20.467Z,8.62
2017-05-18T07:22:48.193Z,8.44
2017-05-18T07:25:16.684Z,8.06
2017-05-18T07:27:44.424Z,7.22
2017-05-18T07:30:12.144Z,8.44
2017-05-18T07:32:39.889Z,7.70
2017-05-18T07:35:08.439Z,8.78
2017-05-18T07:37:36.164Z,8.96
2017-05-18T07:40:04.454Z,7.76
2017-05-18T07:42:32.177Z,7.76
2017-05-18T07:44:59.898Z,8.36
2017-05-18T07:47:28.278Z,8.36
2017-05-18T07:49:55.992Z,7.64
2017-05-18T07:52:23.716Z,7.90
2017-05-18T07:54:53.154Z,8.08
2017-05-18T07:57:20.880Z,7.58
2017-05-18T07:59:49.345Z,8.00
2017-05-18T08:02:18.524Z,7.40
2017-05-18T08:04:46.239Z,6.90
2017-05-18T08:07:13.961Z,7.70
2017-05-18T08:09:43.717Z,7.80
2017-05-18T08:12:11.440Z,7.30
2017-05-18T08:14:39.161Z,6.76
2017-05-18T08:17:06.928Z,7.10
2017-05-18T08:19:34.652Z,7.20
2017-05-18T08:22:03.113Z,6.68
2017-05-18T08:24:31.171Z,7.52
2017-05-18T08:26:58.891Z,7.40
2017-05-18T08:29:26.607Z,7.08
2017-05-18T08:31:54.683Z,7.32
2017-05-18T08:34:22.399Z,7.02
2017-05-18T08:36:50.129Z,7.16
2017-05-18T08:39:18.632Z,6.60
2017-05-18T08:41:46.355Z,6.20
2017-05-18T08:44:14.081Z,6.72
2017-05-18T08:46:41.829Z,7.00
2017-05-18T08:49:09.572Z,6.68
2017-05-18T08:51:37.291Z,7.48
2017-05-18T08:54:05.047Z,8.34
2017-05-18T08:56:32.820Z,7.80
2017-05-18T08:59:00.535Z,7.20
2017-05-18T09:01:28.563Z,8.00
2017-05-18T09:03:56.284Z,7.14
2017-05-18T09:06:24.009Z,7.92
2017-05-18T09:08:53.083Z,8.56
2017-05-18T09:11:20.804Z,7.22
2017-05-18T09:13:48.529Z,7.45
2017-05-18T09:16:17.033Z,8.56
2017-05-18T09:18:44.751Z,6.80
2017-05-18T09:21:12.472Z,6.62
2017-05-18T09:23:40.230Z,7.94
2017-05-18T09:26:07.953Z,7.08
2017-05-18T09:28:36.164Z,9.16
2017-05-18T09:31:04.492Z,7.60
2017-05-18T09:33:32.225Z,8.26
2017-05-18T09:35:59.948Z,7.80
2017-05-18T09:38:28.000Z,9.40
2017-05-18T09:40:55.733Z,9.20
2017-05-18T09:43:23.459Z,7.70
2017-05-18T09:45:51.487Z,9.50
2017-05-18T09:48:19.211Z,9.22
2017-05-18T09:50:46.932Z,9.04
2017-05-18T09:53:15.414Z,8.50
2017-05-18T09:55:43.138Z,9.84
2017-05-18T09:58:10.875Z,10.16
2017-05-18T10:00:39.196Z,9.90
2017-05-18T10:03:06.911Z,9.80
2017-05-18T10:05:34.640Z,9.12
2017-05-18T10:08:03.512Z,10.54
2017-05-18T10:10:31.238Z,10.20
2017-05-18T10:12:58.957Z,9.98
2017-05-18T10:15:28.035Z,10.04
2017-05-18T10:17:55.786Z,8.42
2017-05-18T10:20:23.503Z,8.58
2017-05-18T10:22:51.740Z,10.34
2017-05-18T10:25:19.459Z,8.50
2017-05-18T10:27:47.176Z,8.52
2017-05-18T10:30:15.664Z,8.14
2017-05-18T10:32:44.640Z,8.80
2017-05-18T10:35:13.112Z,9.24
2017-05-18T10:37:40.873Z,7.72
2017-05-18T10:40:08.591Z,8.38
2017-05-18T10:42:36.313Z,7.58
2017-05-18T10:45:05.500Z,9.10
2017-05-18T10:47:33.215Z,8.28
2017-05-18T10:50:00.940Z,9.12
2017-05-18T10:52:29.713Z,9.06
2017-05-18T10:54:57.430Z,8.90
2017-05-18T10:57:25.157Z,9.88
2017-05-18T10:59:54.763Z,8.08
2017-05-18T11:02:23.231Z,7.30
2017-05-18T11:04:50.952Z,7.56
2017-05-18T11:07:19.197Z,7.50
2017-05-18T11:09:46.920Z,8.44
2017-05-18T11:12:14.640Z,7.56
2017-05-18T11:14:42.964Z,7.90
2017-05-18T11:17:10.689Z,7.42
2017-05-18T11:19:38.405Z,7.56
2017-05-18T11:22:07.623Z,5.94
2017-05-18T11:24:35.344Z,6.32
2017-05-18T11:27:03.069Z,6.82
2017-05-18T11:29:30.816Z,6.56
2017-05-18T11:31:58.552Z,7.90
2017-05-18T11:34:26.284Z,7.84
2017-05-18T11:36:54.044Z,9.36
2017-05-18T11:39:21.781Z,9.56
2017-05-18T11:41:49.520Z,10.40
2017-05-18T11:44:18.184Z,10.74
2017-05-18T11:46:46.743Z,11.98
2017-05-18T11:49:14.467Z,11.30
2017-05-18T11:51:42.400Z,12.00
2017-05-18T11:54:10.131Z,10.56
2017-05-18T11:56:37.859Z,12.96
2017-05-18T11:59:05.892Z,12.82
2017-05-18T12:01:33.615Z,12.52
2017-05-18T12:04:01.345Z,12.42
2017-05-18T12:06:30.003Z,15.20
2017-05-18T12:08:57.724Z,13.42
2017-05-18T12:11:25.452Z,19.22
2017-05-18T12:13:53.963Z,19.36
2017-05-18T12:16:21.683Z,22.64
2017-05-18T12:18:50.147Z,20.86
2017-05-18T12:21:17.900Z,28.22
2017-05-18T12:23:45.619Z,31.58
2017-05-18T12:26:13.359Z,30.64
2017-05-18T12:28:42.436Z,29.38
2017-05-18T12:31:10.164Z,27.36
2017-05-18T12:33:37.901Z,29.22
2017-05-18T12:36:06.756Z,26.96
2017-05-18T12:38:34.483Z,27.40
2017-05-18T12:41:02.234Z,26.50
2017-05-18T12:43:29.996Z,26.58
2017-05-18T12:45:57.724Z,28.36
2017-05-18T12:48:26.188Z,26.18
2017-05-18T12:50:55.400Z,29.56
2017-05-18T12:53:23.864Z,32.44
2017-05-18T12:55:51.613Z,25.76
2017-05-18T12:58:19.378Z,25.80
2017-05-18T13:00:47.133Z,26.90
2017-05-18T13:03:14.866Z,23.76
2017-05-18T13:05:42.987Z,26.16
2017-05-18T13:08:10.718Z,24.32
2017-05-18T13:10:38.597Z,25.94
2017-05-18T13:13:06.348Z,25.80
2017-05-18T13:15:34.077Z,25.20
2017-05-18T13:18:01.821Z,24.78
2017-05-18T13:20:29.908Z,21.20
2017-05-18T13:22:57.644Z,22.17
2017-05-18T13:25:25.491Z,23.58
2017-05-18T13:27:53.476Z,21.84
2017-05-18T13:30:21.206Z,19.86
2017-05-18T13:32:49.837Z,16.64
2017-05-18T13:35:19.409Z,17.86
2017-05-18T13:37:47.150Z,15.06
2017-05-18T13:40:14.876Z,13.42
2017-05-18T13:42:43.747Z,13.16
2017-05-18T13:45:11.476Z,15.34
2017-05-18T13:47:39.203Z,12.74
2017-05-18T13:50:06.963Z,12.04
2017-05-18T13:52:35.428Z,10.32
2017-05-18T13:55:03.937Z,8.76
2017-05-18T13:57:31.697Z,8.88
2017-05-18T13:59:59.424Z,6.64
2017-05-18T14:02:27.162Z,5.92
2017-05-18T14:04:54.907Z,5.74
2017-05-18T14:07:22.645Z,5.94
2017-05-18T14:09:50.459Z,6.44
2017-05-18T14:12:18.177Z,6.02
2017-05-18T14:14:45.905Z,6.70
2017-05-18T14:17:13.624Z,5.92
2017-05-18T14:19:41.340Z,6.86
2017-05-18T14:22:11.172Z,8.16
2017-05-18T14:24:38.955Z,8.46
2017-05-18T14:27:06.676Z,7.98
2017-05-18T14:29:34.396Z,7.40
2017-05-18T14:32:02.121Z,9.80
2017-05-18T14:34:30.596Z,8.48
2017-05-18T14:36:59.140Z,8.08
2017-05-18T14:39:27.435Z,8.90
2017-05-18T14:41:55.168Z,10.14
2017-05-18T14:44:22.905Z,8.74
2017-05-18T14:46:50.627Z,7.44
2017-05-18T14:49:18.344Z,6.82
2017-05-18T14:51:46.967Z,6.42
2017-05-18T14:54:14.690Z,7.84
2017-05-18T14:56:42.415Z,7.88
2017-05-18T14:59:10.468Z,7.54
2017-05-18T15:01:39.487Z,7.48
2017-05-18T15:04:07.209Z,7.16
2017-05-18T15:06:34.957Z,7.30
2017-05-18T15:09:02.727Z,7.40
2017-05-18T15:11:30.463Z,6.58
2017-05-18T15:13:58.796Z,8.58
2017-05-18T15:16:26.519Z,8.12
2017-05-18T15:18:54.240Z,7.20
2017-05-18T15:21:21.999Z,6.50
2017-05-18T15:23:50.540Z,6.30
2017-05-18T15:26:18.304Z,6.60
2017-05-18T15:28:46.409Z,5.52
2017-05-18T15:31:14.880Z,5.58
2017-05-18T15:33:42.604Z,5.02
2017-05-18T15:36:10.353Z,4.30
2017-05-18T15:38:38.100Z,4.24
2017-05-18T15:41:05.820Z,5.48
2017-05-18T15:43:33.587Z,5.48
2017-05-18T15:46:01.312Z,5.46
2017-05-18T15:48:29.034Z,4.16
2017-05-18T15:50:57.520Z,3.82
2017-05-18T15:53:26.009Z,4.00
2017-05-18T15:55:53.739Z,3.62
2017-05-18T15:58:21.486Z,2.92
2017-05-18T16:00:49.231Z,3.52
2017-05-18T16:03:18.149Z,2.72
2017-05-18T16:05:46.128Z,2.22
2017-05-18T16:08:13.846Z,2.00
2017-05-18T16:10:41.570Z,2.06
2017-05-18T16:13:10.197Z,2.30
2017-05-18T16:15:37.915Z,2.08
2017-05-18T16:18:06.379Z,2.30
2017-05-18T16:20:34.356Z,2.52
2017-05-18T16:23:02.077Z,2.30
2017-05-18T16:25:29.792Z,2.28
2017-05-18T16:27:58.465Z,2.16
2017-05-18T16:30:26.204Z,2.38
2017-05-18T16:32:53.924Z,2.54
2017-05-18T16:35:21.654Z,2.66
2017-05-18T16:37:49.372Z,2.44
2017-05-18T16:40:17.112Z,3.56
2017-05-18T16:42:44.847Z,3.50
2017-05-18T16:45:12.568Z,3.32
2017-05-18T16:47:42.213Z,2.84
2017-05-18T16:50:09.937Z,3.00
2017-05-18T16:52:37.715Z,2.28
2017-05-18T16:55:05.932Z,2.02
2017-05-18T16:57:34.391Z,2.32
2017-05-18T17:00:02.140Z,2.30
2017-05-18T17:02:29.890Z,2.10
2017-05-18T17:04:57.636Z,2.32
2017-05-18T17:07:25.366Z,1.98
2017-05-18T17:09:53.981Z,1.60
2017-05-18T17:12:21.708Z,1.70
2017-05-18T17:14:50.471Z,1.40
2017-05-18T17:17:19.069Z,1.70
2017-05-18T17:19:46.800Z,1.80
2017-05-18T17:22:14.528Z,1.92
2017-05-18T17:24:42.312Z,2.00
2017-05-18T17:27:10.036Z,2.72
2017-05-18T17:29:37.759Z,1.84
2017-05-18T17:32:06.563Z,2.40
2017-05-18T17:34:34.285Z,1.88
2017-05-18T17:37:02.020Z,1.40
2017-05-18T17:39:30.885Z,1.30
2017-05-18T17:41:58.609Z,1.56
2017-05-18T17:44:26.338Z,1.10
2017-05-18T17:46:54.820Z,1.14
2017-05-18T17:49:22.555Z,1.18
2017-05-18T17:51:50.312Z,1.98
2017-05-18T17:54:18.061Z,1.70
2017-05-18T17:56:45.784Z,2.34
2017-05-18T17:59:13.522Z,1.84
2017-05-18T18:01:42.000Z,2.02
2017-05-18T18:04:10.576Z,2.42
2017-05-18T18:06:38.357Z,2.24
2017-05-18T18:09:06.880Z,2.12
2017-05-18T18:11:34.610Z,2.62
2017-05-18T18:14:02.335Z,2.50
2017-05-18T18:16:30.089Z,2.82
2017-05-18T18:18:57.813Z,3.00
2017-05-18T18:21:25.611Z,2.32
2017-05-18T18:23:54.320Z,3.22
2017-05-18T18:26:22.035Z,2.66
2017-05-18T18:28:49.768Z,2.32
2017-05-18T18:31:19.350Z,3.34
2017-05-18T18:33:47.077Z,2.96
2017-05-18T18:36:14.804Z,2.82
2017-05-18T18:38:43.568Z,2.70
2017-05-18T18:41:12.057Z,2.66
2017-05-18T18:43:40.523Z,2.46
2017-05-18T18:46:09.007Z,2.60
2017-05-18T18:48:36.746Z,2.82
2017-05-18T18:51:04.476Z,2.10
2017-05-18T18:53:32.225Z,2.22
2017-05-18T18:55:59.956Z,1.88
2017-05-18T18:58:27.696Z,1.88
2017-05-18T19:00:55.456Z,2.08
2017-05-18T19:03:23.198Z,1.86
2017-05-18T19:05:50.916Z,1.50
2017-05-18T19:08:18.684Z,2.02
2017-05-18T19:10:46.404Z,1.64
2017-05-18T19:13:14.128Z,1.74
2017-05-18T19:15:43.132Z,2.32
2017-05-18T19:18:10.848Z,2.08
2017-05-18T19:20:38.564Z,1.80
2017-05-18T19:23:06.327Z,2.34
2017-05-18T19:25:34.083Z,2.20
2017-05-18T19:28:01.813Z,1.96
2017-05-18T19:30:30.597Z,1.86
2017-05-18T19:32:58.311Z,1.90
2017-05-18T19:35:26.036Z,1.70
2017-05-18T19:37:54.935Z,2.58
2017-05-18T19:40:22.664Z,2.16
2017-05-18T19:42:50.384Z,1.96
2017-05-18T19:45:18.135Z,2.50
2017-05-18T19:47:45.884Z,2.30
2017-05-18T19:50:14.427Z,1.66
2017-05-18T19:52:43.142Z,2.30
2017-05-18T19:55:11.698Z,2.00
2017-05-18T19:57:39.425Z,4.62
2017-05-18T20:00:07.753Z,2.82
2017-05-18T20:02:35.499Z,3.08
2017-05-18T20:05:03.221Z,2.66
2017-05-18T20:07:30.947Z,3.14
2017-05-18T20:09:58.804Z,3.48
2017-05-18T20:12:26.540Z,3.28
2017-05-18T20:14:54.278Z,3.20
2017-05-18T20:17:22.028Z,3.12
2017-05-18T20:19:50.508Z,3.32
2017-05-18T20:22:18.968Z,3.20
2017-05-18T20:24:48.112Z,3.28
2017-05-18T20:27:15.828Z,3.04
2017-05-18T20:29:43.553Z,2.62
2017-05-18T20:32:12.944Z,3.00
2017-05-18T20:34:40.667Z,3.28
2017-05-18T20:37:08.400Z,3.46
2017-05-18T20:39:36.147Z,4.30
2017-05-18T20:42:04.628Z,4.08
2017-05-18T20:44:33.095Z,3.54
2017-05-18T20:47:00.903Z,4.18
2017-05-18T20:49:28.649Z,4.66
2017-05-18T20:51:56.377Z,4.46
2017-05-18T20:54:24.145Z,4.28
2017-05-18T20:56:51.861Z,4.24
2017-05-18T20:59:19.593Z,5.10
2017-05-18T21:01:48.461Z,4.20
2017-05-18T21:04:16.189Z,5.36
2017-05-18T21:06:43.920Z,5.26
2017-05-18T21:09:11.695Z,5.12
2017-05-18T21:11:40.235Z,4.58
2017-05-18T21:14:07.960Z,5.12
2017-05-18T21:16:35.997Z,5.42
2017-05-18T21:19:03.721Z,5.46
2017-05-18T21:21:31.440Z,5.24
2017-05-18T21:23:59.184Z,6.80
2017-05-18T21:26:26.925Z,6.78
2017-05-18T21:28:54.644Z,6.24
2017-05-18T21:31:22.755Z,6.58
2017-05-18T21:33:50.485Z,6.92
2017-05-18T21:36:18.208Z,6.92
2017-05-18T21:38:45.953Z,7.34
2017-05-18T21:41:14.425Z,7.00
2017-05-18T21:43:42.162Z,7.14
2017-05-18T21:46:10.251Z,8.28
2017-05-18T21:48:37.980Z,6.82
2017-05-18T21:51:05.709Z,7.82
2017-05-18T21:53:34.368Z,8.20
2017-05-18T21:56:02.087Z,9.00
2017-05-18T21:58:29.805Z,9.08
2017-05-18T22:00:58.322Z,9.48
2017-05-18T22:03:26.045Z,9.06
2017-05-18T22:05:53.772Z,9.14
2017-05-18T22:08:21.657Z,9.52
2017-05-18T22:10:49.387Z,9.78
2017-05-18T22:13:17.464Z,10.14
2017-05-18T22:15:45.197Z,11.28
2017-05-18T22:18:12.933Z,11.72
2017-05-18T22:20:41.104Z,10.84
2017-05-18T22:23:08.884Z,12.22
2017-05-18T22:25:37.344Z,12.42
2017-05-18T22:28:06.244Z,12.54
2017-05-18T22:30:33.982Z,12.76
2017-05-18T22:33:01.717Z,13.62
2017-05-18T22:35:29.459Z,15.50
2017-05-18T22:37:57.193Z,12.74
2017-05-18T22:40:24.920Z,14.93
2017-05-18T22:42:52.648Z,14.50
2017-05-18T22:45:20.391Z,14.48
2017-05-18T22:47:48.860Z,14.02
2017-05-18T22:50:16.630Z,12.54
2017-05-18T22:52:45.104Z,13.90
2017-05-18T22:55:12.835Z,14.32
2017-05-18T22:57:40.609Z,13.30
2017-05-18T23:00:08.405Z,14.36
2017-05-18T23:02:36.139Z,13.34
2017-05-18T23:05:03.869Z,15.02
2017-05-18T23:07:31.591Z,14.72
2017-05-18T23:10:00.060Z,13.34
2017-05-18T23:12:27.783Z,14.44
2017-05-18T23:14:56.107Z,14.62
2017-05-18T23:17:24.583Z,15.24
2017-05-18T23:19:52.309Z,15.76
2017-05-18T23:22:20.079Z,14.20
2017-05-18T23:24:47.800Z,15.10
2017-05-18T23:27:16.269Z,13.84
2017-05-18T23:29:44.736Z,17.88
2017-05-18T23:32:12.473Z,17.36
2017-05-18T23:34:40.197Z,15.60
2017-05-18T23:37:07.930Z,16.92
2017-05-18T23:39:36.404Z,18.22
2017-05-18T23:42:04.156Z,18.92
2017-05-18T23:44:31.895Z,18.18
2017-05-18T23:46:59.637Z,16.02
2017-05-18T23:49:27.707Z,17.62
2017-05-18T23:51:55.438Z,16.24
2017-05-18T23:54:23.900Z,18.40
2017-05-18T23:56:51.640Z,19.04
2017-05-18T23:59:19.376Z,18.74
